Avery, Idaho
Current Conditions -  °F | °C
As of 7:53 AM on Wednesday 26 Nov 2014 (Local Time) from KMLP Reporting Station
Light Rain Light Rain  
Wind Chill: -2°   Ceiling: 100
Heat Index:   Visibility: 0.25mi
Dew Point:   Wind: 7mph
Humidity: 92%   Direction: 320°NW
Pressure: 30.1"   Gusts: NA
Location:  47.25°N, 115.81°W
Report Text: KMLP 261553Z AUTO 32006KT 1/4SM -RA FG VV001 01/00 A3010 RMK AO2 RAB39SNE39 SLP171 P0002 T00110000
Loading
Personal Weather Stations






























Interactive Weather Map New forecast layout! Learn more

10-Day Weather Forecast

Advertisements
Track Severe Weather on mobile